Mill Gap, Virginia
Current Conditions -  °F | °C
As of 7:15 AM on Friday 19 Dec 2014 (Local Time) from KHSP Reporting Station
Scattered Clouds Scattered Clouds  
Wind Chill:   Ceiling: Unl
Heat Index: 20°   Visibility: 7mi
Dew Point: 20°   Wind: 13mph
Humidity: 100%   Direction: 280°W
Pressure: 29.99"   Gusts: NA
Location:  38.3937°N, 79.6382°W
Report Text: KHSP 191215Z AUTO 28011KT 7SM SCT004 M07/M07 A2999 RMK AO2 T10661066
Loading
Personal Weather Stations






























Interactive Weather Map New forecast layout! Learn more

10-Day Weather Forecast

Advertisements
Track Severe Weather on mobile